Time;durP1;ratioP1;P1;durP2;ratioP2;P2;SDS_P1;SDS_P2;PMS_P1;PMS_P2;Temp;Humidity;BMP_temperature;BMP_pressure;BME280_temperature;BME280_humidity;BME280_pressure;Samples;Min_cycle;Max_cycle;Signal;HPM_P1;HPM_P2
2022/09/27 00:01:46;;;;;;;3.70;0.77;;;10.30;99.90;;;;;;4249516;27;20498;-84
2022/09/27 00:03:46;;;;;;;3.40;0.30;;;10.30;99.90;;;;;;4249835;27;20502;-84
2022/09/27 00:05:47;;;;;;;4.55;0.77;;;10.30;99.90;;;;;;4231666;28;20100;-84
2022/09/27 00:07:48;;;;;;;2.60;0.32;;;10.20;99.90;;;;;;4249535;27;20482;-84
2022/09/27 00:09:49;;;;;;;4.18;0.60;;;10.00;99.90;;;;;;4249729;27;20039;-84
2022/09/27 00:11:49;;;;;;;2.25;0.65;;;10.20;99.90;;;;;;4231413;28;20079;-85
2022/09/27 00:13:50;;;;;;;3.08;0.40;;;10.20;99.90;;;;;;4249465;27;20119;-84
2022/09/27 00:16:04;;;;;;;3.03;0.30;;;10.20;99.90;;;;;;4249766;27;20051;-84
2022/09/27 00:18:05;;;;;;;2.33;0.30;;;10.20;99.90;;;;;;4249613;27;20360;-84
2022/09/27 00:20:07;;;;;;;7.07;0.77;;;10.20;99.90;;;;;;4249018;27;20039;-84
2022/09/27 00:22:08;;;;;;;0.50;0.30;;;10.20;99.90;;;;;;4231154;28;20051;-83
2022/09/27 00:24:12;;;;;;;2.38;0.35;;;10.20;99.90;;;;;;4249645;27;20070;-83
2022/09/27 00:26:13;;;;;;;0.70;0.20;;;10.20;99.90;;;;;;4231292;28;20047;-83
2022/09/27 00:28:13;;;;;;;5.43;0.40;;;10.20;99.90;;;;;;4231422;28;20039;-84
2022/09/27 00:30:14;;;;;;;0.82;0.30;;;10.20;99.90;;;;;;4249548;27;20142;-84
2022/09/27 00:32:15;;;;;;;5.70;0.20;;;10.20;99.90;;;;;;4230615;28;20130;-84
2022/09/27 00:34:19;;;;;;;2.97;0.20;;;10.20;99.90;;;;;;4249455;27;20074;-83
2022/09/27 00:36:21;;;;;;;4.15;0.47;;;10.20;99.90;;;;;;4249452;27;20039;-83
2022/09/27 00:38:23;;;;;;;5.97;0.40;;;10.10;99.90;;;;;;4231058;28;20146;-84
2022/09/27 00:40:24;;;;;;;1.75;0.30;;;10.10;99.90;;;;;;4230614;28;20051;-83
2022/09/27 00:42:24;;;;;;;1.92;0.57;;;10.10;99.90;;;;;;4249322;27;20043;-83
2022/09/27 00:44:28;;;;;;;4.38;0.25;;;10.20;99.90;;;;;;4249217;27;20118;-84
2022/09/27 00:46:35;;;;;;;1.65;0.20;;;10.20;99.90;;;;;;4230015;28;20083;-84
2022/09/27 00:48:36;;;;;;;2.47;0.30;;;10.20;99.90;;;;;;4249324;27;20047;-84
2022/09/27 00:50:45;;;;;;;2.92;0.38;;;10.20;99.90;;;;;;4248363;27;20529;-84
2022/09/27 00:52:55;;;;;;;1.77;0.93;;;10.20;99.90;;;;;;4249300;27;20054;-84
2022/09/27 00:55:03;;;;;;;4.40;0.93;;;10.20;99.90;;;;;;4249074;27;20050;-84
2022/09/27 00:57:04;;;;;;;2.10;0.55;;;10.20;99.90;;;;;;4249102;27;20107;-84
2022/09/27 00:59:13;;;;;;;2.80;0.28;;;10.10;99.90;;;;;;4230621;28;20085;-84
2022/09/27 01:01:15;;;;;;;3.97;0.30;;;10.10;99.90;;;;;;4248769;27;20085;-84
2022/09/27 01:03:26;;;;;;;3.40;0.45;;;10.10;99.90;;;;;;4230568;28;20047;-84
2022/09/27 01:05:28;;;;;;;10.40;0.75;;;10.10;99.90;;;;;;4248855;27;20491;-83
2022/09/27 01:07:30;;;;;;;3.47;0.38;;;10.10;99.90;;;;;;4248672;27;20047;-83
2022/09/27 01:09:31;;;;;;;3.67;0.43;;;10.10;99.90;;;;;;4248560;27;20039;-83
2022/09/27 01:11:43;;;;;;;4.03;0.43;;;10.10;99.90;;;;;;4230186;28;20036;-84
2022/09/27 01:14:02;;;;;;;2.20;0.32;;;10.00;99.90;;;;;;4248685;27;20054;-84
2022/09/27 01:16:33;;;;;;;2.47;0.20;;;10.00;99.90;;;;;;4248753;27;20047;-84
2022/09/27 01:18:53;;;;;;;6.80;0.68;;;10.00;99.90;;;;;;4243676;27;20055;-84
2022/09/27 01:21:00;;;;;;;0.88;0.28;;;10.00;99.90;;;;;;4230033;28;20039;-84
2022/09/27 01:23:07;;;;;;;8.20;0.50;;;10.00;99.90;;;;;;4248692;27;20529;-84
2022/09/27 01:25:45;;;;;;;6.10;0.85;;;10.00;99.90;;;;;;4248288;27;20209;-84
2022/09/27 01:27:50;;;;;;;4.40;0.40;;;9.90;99.90;;;;;;4248574;27;20043;-84
2022/09/27 01:30:11;;;;;;;6.40;1.02;;;9.90;99.90;;;;;;4248482;27;20054;-84
2022/09/27 01:32:28;;;;;;;0.88;0.40;;;9.90;99.90;;;;;;4248529;27;20051;-84
2022/09/27 01:34:38;;;;;;;2.67;0.30;;;9.90;99.90;;;;;;4248451;27;20053;-83
2022/09/27 01:36:50;;;;;;;1.38;0.40;;;9.90;99.90;;;;;;4247907;27;20047;-84
2022/09/27 01:39:09;;;;;;;1.20;0.20;;;9.90;99.90;;;;;;4248391;27;20122;-84
2022/09/27 01:41:10;;;;;;;;;;;9.90;99.90;;;;;;4230884;28;20075;-83
2022/09/27 01:43:35;;;;;;;2.97;0.40;;;9.90;99.90;;;;;;4248360;27;19926;-84
2022/09/27 01:45:40;;;;;;;2.22;0.20;;;9.90;99.90;;;;;;4247900;27;20543;-84
2022/09/27 01:47:49;;;;;;;1.85;0.50;;;9.90;99.90;;;;;;4248252;27;20047;-84
2022/09/27 01:49:52;;;;;;;1.57;0.17;;;9.90;99.90;;;;;;4247997;27;20051;-84
2022/09/27 01:52:01;;;;;;;5.03;0.43;;;9.90;99.90;;;;;;4229805;28;20297;-84
2022/09/27 01:54:05;;;;;;;6.07;0.80;;;10.00;99.90;;;;;;4247805;27;20041;-84
2022/09/27 01:56:12;;;;;;;2.63;0.30;;;10.00;99.90;;;;;;4230165;28;20059;-84
2022/09/27 01:58:33;;;;;;;2.63;0.50;;;10.00;99.90;;;;;;4229186;28;20079;-84
2022/09/27 02:00:35;;;;;;;1.20;0.20;;;10.00;99.90;;;;;;4247891;27;20077;-84
2022/09/27 02:02:54;;;;;;;2.60;0.32;;;10.00;99.90;;;;;;4247679;27;20050;-83
2022/09/27 02:05:16;;;;;;;3.28;0.50;;;10.00;99.90;;;;;;4248304;27;20058;-84
2022/09/27 02:07:25;;;;;;;4.38;0.52;;;10.00;99.90;;;;;;4229614;28;20043;-84
2022/09/27 02:09:36;;;;;;;1.58;0.40;;;10.00;99.90;;;;;;4248241;27;20543;-84
2022/09/27 02:11:41;;;;;;;1.40;0.20;;;10.00;99.90;;;;;;4247859;27;20498;-84
2022/09/27 02:13:44;;;;;;;9.50;0.40;;;10.00;99.90;;;;;;4247987;27;20134;-84
2022/09/27 02:16:40;;;;;;;4.78;0.40;;;9.90;99.90;;;;;;4229767;28;20059;-84
2022/09/27 02:18:52;;;;;;;2.83;0.30;;;9.90;99.90;;;;;;4162152;28;20935;-83
2022/09/27 02:20:57;;;;;;;2.75;0.20;;;9.90;99.90;;;;;;4216137;27;20043;-83
2022/09/27 02:23:14;;;;;;;5.57;0.32;;;9.90;99.90;;;;;;4247384;27;20563;-84
2022/09/27 02:25:27;;;;;;;3.63;0.95;;;9.90;99.90;;;;;;4247777;27;20047;-84
2022/09/27 02:27:41;;;;;;;3.95;0.73;;;9.90;99.90;;;;;;4247745;27;20051;-84
2022/09/27 02:29:49;;;;;;;4.00;0.65;;;9.90;99.90;;;;;;4247542;27;20043;-83
2022/09/27 02:31:50;;;;;;;0.20;0.20;;;9.90;99.90;;;;;;4247790;27;20395;-84
2022/09/27 02:34:22;;;;;;;1.98;0.28;;;9.80;99.90;;;;;;4247174;27;20042;-84
2022/09/27 02:36:23;;;;;;;2.72;0.40;;;9.80;99.90;;;;;;4229374;28;20043;-84
2022/09/27 02:38:23;;;;;;;0.30;0.20;;;9.80;99.90;;;;;;4247682;28;20402;-83
2022/09/27 02:40:31;;;;;;;0.80;0.20;;;9.70;99.90;;;;;;4247731;28;20035;-84
2022/09/27 02:42:33;;;;;;;0.70;0.20;;;9.80;99.90;;;;;;4247002;28;20051;-84
2022/09/27 02:44:34;;;;;;;0.50;0.05;;;9.80;99.90;;;;;;4229269;28;20051;-85
2022/09/27 02:47:12;;;;;;;1.25;0.30;;;9.70;99.90;;;;;;4212582;28;20056;-85
2022/09/27 02:49:27;;;;;;;0.90;0.20;;;9.70;99.90;;;;;;4247205;27;20043;-85
2022/09/27 02:51:53;;;;;;;2.17;0.17;;;9.70;99.90;;;;;;4247276;28;20086;-85
2022/09/27 02:54:12;;;;;;;1.98;0.30;;;9.70;99.90;;;;;;4246955;28;20040;-85
2022/09/27 02:56:13;;;;;;;2.03;0.20;;;9.70;99.90;;;;;;4247575;28;20126;-85
2022/09/27 02:58:46;;;;;;;0.45;0.20;;;9.70;99.90;;;;;;4229336;28;20436;-85
2022/09/27 03:00:57;;;;;;;2.55;0.22;;;9.70;99.90;;;;;;4247631;28;20031;-85
2022/09/27 03:03:13;;;;;;;5.20;0.85;;;9.70;99.90;;;;;;4247428;28;20453;-84
2022/09/27 03:05:22;;;;;;;1.40;0.30;;;9.70;99.90;;;;;;4247533;28;20043;-84
2022/09/27 03:07:23;;;;;;;2.70;0.65;;;9.70;99.90;;;;;;4247146;28;20096;-85
2022/09/27 03:09:28;;;;;;;3.40;0.35;;;9.60;99.90;;;;;;4246731;27;20035;-85
2022/09/27 03:11:29;;;;;;;3.00;0.30;;;9.60;99.90;;;;;;4250880;27;20072;-85
2022/09/27 03:13:30;;;;;;;3.85;0.50;;;9.70;99.90;;;;;;4250664;27;20042;-85
2022/09/27 03:15:31;;;;;;;4.35;0.57;;;9.60;99.90;;;;;;4232549;28;20051;-85
2022/09/27 03:17:33;;;;;;;5.50;1.45;;;9.60;99.90;;;;;;4250755;27;20039;-84
2022/09/27 03:19:34;;;;;;;2.50;0.55;;;9.60;99.90;;;;;;4250744;27;20050;-84
2022/09/27 03:21:35;;;;;;;2.17;0.20;;;9.60;99.90;;;;;;4250245;27;20039;-85
2022/09/27 03:23:35;;;;;;;3.08;0.30;;;9.60;99.90;;;;;;4250631;27;20035;-84
2022/09/27 03:25:36;;;;;;;3.35;0.30;;;9.50;99.90;;;;;;4232077;28;20054;-83
2022/09/27 03:27:38;;;;;;;3.97;0.60;;;9.50;99.90;;;;;;4250716;27;20534;-83
2022/09/27 03:29:38;;;;;;;0.38;0.20;;;9.50;99.90;;;;;;4250442;27;20169;-83
2022/09/27 03:31:42;;;;;;;1.42;0.22;;;9.50;99.90;;;;;;4250635;27;20117;-83
2022/09/27 03:33:43;;;;;;;2.40;0.20;;;9.40;99.90;;;;;;4249955;27;20041;-83
2022/09/27 03:35:45;;;;;;;2.15;0.85;;;9.40;99.90;;;;;;4232270;28;20079;-83
2022/09/27 03:37:46;;;;;;;1.73;0.15;;;9.40;99.90;;;;;;4250486;27;20455;-83
2022/09/27 03:39:47;;;;;;;2.58;0.30;;;9.40;99.90;;;;;;4250373;27;20150;-83
2022/09/27 03:41:48;;;;;;;1.15;0.45;;;9.40;99.90;;;;;;4231885;28;20047;-84
2022/09/27 03:43:49;;;;;;;3.05;0.60;;;9.40;99.90;;;;;;4250409;27;20423;-85
2022/09/27 03:45:49;;;;;;;1.75;0.30;;;9.40;99.90;;;;;;4249870;27;20042;-84
2022/09/27 03:47:50;;;;;;;1.15;0.10;;;9.40;99.90;;;;;;4250115;27;20092;-84
2022/09/27 03:49:51;;;;;;;2.05;0.30;;;9.40;99.90;;;;;;4250203;27;20491;-84
2022/09/27 03:51:52;;;;;;;1.20;0.20;;;9.30;99.90;;;;;;4250190;27;20074;-84
2022/09/27 03:54:01;;;;;;;0.47;0.10;;;9.40;99.90;;;;;;4250115;27;20078;-84
2022/09/27 03:56:02;;;;;;;3.70;0.88;;;9.40;99.90;;;;;;4250203;27;20498;-84
2022/09/27 03:58:03;;;;;;;2.83;0.45;;;9.30;99.90;;;;;;4249882;27;20042;-84
2022/09/27 04:00:05;;;;;;;1.52;0.20;;;9.30;99.90;;;;;;4231625;28;20059;-84
2022/09/27 04:02:06;;;;;;;1.48;0.20;;;9.30;99.90;;;;;;4250047;27;20486;-84
2022/09/27 04:04:07;;;;;;;3.10;1.05;;;9.40;99.90;;;;;;4231267;28;20048;-84
2022/09/27 04:06:07;;;;;;;2.10;0.50;;;9.40;99.90;;;;;;4250049;27;20043;-85
2022/09/27 04:08:10;;;;;;;2.63;0.50;;;9.40;99.90;;;;;;4249937;27;20043;-84
2022/09/27 04:10:12;;;;;;;1.42;0.30;;;9.40;99.90;;;;;;4249385;27;20054;-84
2022/09/27 04:12:14;;;;;;;1.23;0.32;;;9.40;99.90;;;;;;4231450;28;20470;-84
2022/09/27 04:14:14;;;;;;;3.47;0.80;;;9.40;99.90;;;;;;4230844;28;20050;-84
2022/09/27 04:16:15;;;;;;;6.10;0.55;;;9.40;99.90;;;;;;4231320;28;20051;-84
2022/09/27 04:18:16;;;;;;;5.03;0.95;;;9.40;99.90;;;;;;4249804;27;20114;-84
2022/09/27 04:20:17;;;;;;;6.82;1.05;;;9.40;99.90;;;;;;4249735;27;20046;-84
2022/09/27 04:22:22;;;;;;;1.25;0.20;;;9.40;99.90;;;;;;4230815;28;20051;-84
2022/09/27 04:24:24;;;;;;;2.40;0.32;;;10.10;99.90;;;;;;4249671;27;20047;-84
2022/09/27 04:26:27;;;;;;;3.80;0.40;;;9.40;99.90;;;;;;4249403;27;20050;-84
2022/09/27 04:28:28;;;;;;;4.65;0.50;;;9.40;99.90;;;;;;4231089;28;20151;-83
2022/09/27 04:30:29;;;;;;;5.13;0.35;;;9.40;99.90;;;;;;4230701;28;20047;-83
2022/09/27 04:32:30;;;;;;;3.53;0.63;;;9.40;99.90;;;;;;4249254;27;20074;-84
2022/09/27 04:36:49;;;;;;;2.78;0.40;;;9.50;99.90;;;;;;4231207;28;20051;-83
2022/09/27 04:38:54;;;;;;;2.25;0.30;;;9.40;99.90;;;;;;4249364;27;20455;-84
2022/09/27 04:40:55;;;;;;;3.28;0.80;;;9.40;99.90;;;;;;4249458;27;20088;-83
2022/09/27 04:42:56;;;;;;;5.57;0.40;;;9.40;99.90;;;;;;4248921;27;20047;-84
2022/09/27 04:44:57;;;;;;;2.50;0.25;;;9.40;99.90;;;;;;4249404;27;20460;-83
2022/09/27 04:46:58;;;;;;;4.00;0.40;;;9.40;99.90;;;;;;4249386;27;20095;-83
2022/09/27 04:48:59;;;;;;;4.90;0.55;;;9.40;99.90;;;;;;4249248;27;20096;-84
2022/09/27 04:51:01;;;;;;;3.30;0.43;;;9.40;99.90;;;;;;4248955;27;20415;-83
2022/09/27 04:53:02;;;;;;;1.38;0.30;;;9.40;99.90;;;;;;4249087;27;20467;-83
2022/09/27 04:55:04;;;;;;;2.97;0.40;;;9.40;99.90;;;;;;4249185;27;20448;-83
2022/09/27 04:57:04;;;;;;;1.73;0.35;;;9.30;99.90;;;;;;4230268;28;20087;-83
2022/09/27 04:59:08;;;;;;;5.18;0.40;;;9.30;99.90;;;;;;4249054;27;20046;-83
2022/09/27 05:01:09;;;;;;;5.00;0.30;;;9.30;99.90;;;;;;4231008;28;20047;-84
2022/09/27 05:03:10;;;;;;;2.95;0.77;;;9.40;99.90;;;;;;4248467;27;20045;-84
2022/09/27 05:05:11;;;;;;;3.72;0.88;;;9.30;99.90;;;;;;4249282;27;20461;-84
2022/09/27 05:07:12;;;;;;;0.47;0.20;;;9.30;99.90;;;;;;4248921;27;20043;-84
2022/09/27 05:09:12;;;;;;;3.17;0.43;;;9.30;99.90;;;;;;4248890;27;20043;-84
2022/09/27 05:11:13;;;;;;;3.67;0.50;;;9.40;99.90;;;;;;4226438;28;20036;-84
2022/09/27 05:13:14;;;;;;;2.65;0.40;;;9.40;99.90;;;;;;4238539;27;20039;-84
2022/09/27 05:15:14;;;;;;;1.50;0.30;;;9.40;99.90;;;;;;4248370;27;20094;-83
2022/09/27 05:17:17;;;;;;;4.90;1.00;;;9.40;99.90;;;;;;4246971;27;20154;-83
2022/09/27 05:19:18;;;;;;;2.80;0.30;;;9.40;99.90;;;;;;4248640;27;20074;-83
2022/09/27 05:21:18;;;;;;;1.42;0.43;;;9.40;99.90;;;;;;4230633;28;20044;-82
2022/09/27 05:23:20;;;;;;;1.85;0.10;;;9.30;99.90;;;;;;4248075;27;20070;-83
2022/09/27 05:25:21;;;;;;;4.60;0.43;;;9.30;99.90;;;;;;4248521;27;20110;-84
2022/09/27 05:27:25;;;;;;;3.40;0.80;;;9.30;99.90;;;;;;4251250;27;20081;-83
2022/09/27 05:29:26;;;;;;;6.72;0.40;;;9.20;99.90;;;;;;4248634;27;20043;-84
2022/09/27 05:31:28;;;;;;;1.52;0.43;;;9.30;99.90;;;;;;4230376;28;20058;-84
2022/09/27 05:33:29;;;;;;;1.25;0.40;;;9.30;99.90;;;;;;4247344;27;20118;-84
2022/09/27 05:35:30;;;;;;;3.38;0.40;;;9.30;99.90;;;;;;4230400;28;20504;-84
2022/09/27 05:37:32;;;;;;;2.63;0.38;;;9.30;99.90;;;;;;4230068;28;20046;-84
2022/09/27 05:39:33;;;;;;;5.88;0.30;;;9.30;99.90;;;;;;4248171;27;20051;-83
2022/09/27 05:41:33;;;;;;;3.85;0.22;;;9.30;99.90;;;;;;4229751;28;20391;-84
2022/09/27 05:43:37;;;;;;;1.27;0.40;;;9.30;99.90;;;;;;4248061;27;20080;-84
2022/09/27 05:45:38;;;;;;;4.03;0.73;;;9.30;99.90;;;;;;4248413;27;20047;-83
2022/09/27 05:47:38;;;;;;;2.83;0.98;;;9.30;99.90;;;;;;4248345;27;20046;-83
2022/09/27 05:49:39;;;;;;;2.90;0.47;;;9.30;99.90;;;;;;4248050;27;20410;-83
2022/09/27 05:51:40;;;;;;;4.97;0.40;;;9.30;99.90;;;;;;4248105;27;20039;-83
2022/09/27 05:53:41;;;;;;;4.65;0.30;;;8.50;99.90;;;;;;4248145;27;20132;-84
2022/09/27 05:55:42;;;;;;;4.07;0.28;;;9.30;99.90;;;;;;4229087;28;20044;-83
2022/09/27 05:57:57;;;;;;;3.42;0.38;;;9.30;99.90;;;;;;4241413;27;20031;-84
2022/09/27 05:59:59;;;;;;;1.55;0.38;;;9.30;99.90;;;;;;4230234;28;20199;-82
2022/09/27 06:02:01;;;;;;;3.53;0.60;;;9.30;99.90;;;;;;4247888;27;20402;-82
2022/09/27 06:04:04;;;;;;;1.40;0.30;;;9.30;99.90;;;;;;4247468;27;20035;-83
2022/09/27 06:06:05;;;;;;;6.03;0.30;;;9.30;99.90;;;;;;4247791;27;20070;-83
2022/09/27 06:08:09;;;;;;;1.63;0.40;;;9.40;99.90;;;;;;4247889;27;20117;-82
2022/09/27 06:10:10;;;;;;;2.95;0.43;;;9.40;99.90;;;;;;4229399;28;20051;-83
2022/09/27 06:12:13;;;;;;;3.97;0.20;;;9.40;99.90;;;;;;4247584;27;20546;-82
2022/09/27 06:14:14;;;;;;;1.92;0.20;;;9.40;99.90;;;;;;4229314;28;20046;-82
2022/09/27 06:16:14;;;;;;;1.45;0.43;;;9.40;99.90;;;;;;4247953;27;20039;-83
2022/09/27 06:18:16;;;;;;;4.32;0.38;;;9.30;99.90;;;;;;4242042;27;20042;-83
2022/09/27 06:20:17;;;;;;;7.10;0.38;;;9.40;99.90;;;;;;4212790;28;20051;-83
2022/09/27 06:22:18;;;;;;;0.80;0.20;;;9.40;99.90;;;;;;4231513;27;20076;-83
2022/09/27 06:24:26;;;;;;;2.33;0.20;;;9.30;99.90;;;;;;4241611;27;20388;-84
2022/09/27 06:26:33;;;;;;;3.22;0.30;;;9.40;99.90;;;;;;4213309;28;20048;-84
2022/09/27 06:28:34;;;;;;;4.35;0.47;;;9.40;99.90;;;;;;4230614;28;20075;-83
2022/09/27 06:30:38;;;;;;;3.08;0.52;;;9.30;99.90;;;;;;4231115;28;20036;-82
2022/09/27 06:32:39;;;;;;;3.05;0.30;;;9.40;99.90;;;;;;4230668;28;20055;-83
2022/09/27 06:34:40;;;;;;;2.67;0.30;;;9.40;99.90;;;;;;4212331;28;20044;-83
2022/09/27 06:36:42;;;;;;;2.35;0.30;;;9.40;99.90;;;;;;4231176;28;20169;-83
2022/09/27 06:38:45;;;;;;;5.13;0.60;;;9.40;99.90;;;;;;4231215;28;20043;-83
2022/09/27 06:40:46;;;;;;;5.38;0.63;;;9.40;99.90;;;;;;4230627;28;20093;-83
2022/09/27 06:42:48;;;;;;;5.28;0.50;;;9.50;99.90;;;;;;4230244;28;20093;-83
2022/09/27 06:44:49;;;;;;;3.25;0.40;;;9.50;99.90;;;;;;4213274;28;20145;-83
2022/09/27 06:46:51;;;;;;;1.98;0.68;;;9.50;99.90;;;;;;4233888;28;20130;-84
2022/09/27 06:48:52;;;;;;;2.50;0.30;;;9.50;99.90;;;;;;4215843;28;20463;-83
2022/09/27 06:50:56;;;;;;;3.78;0.45;;;9.20;99.90;;;;;;4233715;28;20062;-84
2022/09/27 06:52:57;;;;;;;1.92;0.57;;;9.40;99.90;;;;;;4233687;28;20075;-84
2022/09/27 06:54:58;;;;;;;1.55;0.38;;;9.00;99.90;;;;;;4215944;28;20089;-83
2022/09/27 06:56:59;;;;;;;1.85;0.60;;;9.50;99.90;;;;;;4215508;28;20093;-82
2022/09/27 07:01:19;;;;;;;;;;;9.40;99.90;;;;;;4234618;28;20492;-82
2022/09/27 07:03:22;;;;;;;2.28;0.40;;;9.50;99.90;;;;;;4233967;28;19920;-83
2022/09/27 07:05:24;;;;;;;1.92;0.30;;;9.50;99.90;;;;;;4234008;28;20047;-83
2022/09/27 07:07:27;;;;;;;4.43;0.68;;;9.50;99.90;;;;;;4233052;28;20043;-82
2022/09/27 07:09:27;;;;;;;7.22;0.68;;;9.60;99.90;;;;;;4233835;28;20048;-83
2022/09/27 07:11:29;;;;;;;1.67;0.40;;;9.60;99.90;;;;;;4233699;28;20040;-83
2022/09/27 07:13:33;;;;;;;3.70;0.45;;;9.60;99.90;;;;;;4233638;28;20055;-83
2022/09/27 07:15:36;;;;;;;0.82;0.28;;;9.70;99.90;;;;;;4233793;28;20411;-83
2022/09/27 07:17:36;;;;;;;3.13;0.40;;;9.70;99.90;;;;;;4233294;28;20399;-83
2022/09/27 07:19:37;;;;;;;5.88;0.85;;;9.70;99.90;;;;;;4215614;28;20059;-81
2022/09/27 07:21:38;;;;;;;2.70;0.60;;;9.70;99.90;;;;;;4233382;28;20153;-84
2022/09/27 07:23:38;;;;;;;1.50;0.43;;;9.70;99.90;;;;;;4215229;28;20506;-83
2022/09/27 07:25:40;;;;;;;2.03;0.82;;;9.70;99.90;;;;;;4233538;28;20043;-83
2022/09/27 07:27:41;;;;;;;4.57;0.85;;;9.70;99.90;;;;;;4215264;28;20153;-81
2022/09/27 07:29:42;;;;;;;3.78;0.63;;;9.70;99.90;;;;;;4215132;28;20492;-82
2022/09/27 07:31:43;;;;;;;5.60;0.70;;;9.80;99.90;;;;;;4234528;27;20087;-85
2022/09/27 07:33:44;;;;;;;3.35;0.73;;;9.80;99.90;;;;;;4228967;28;20036;-85
2022/09/27 07:35:44;;;;;;;2.03;0.50;;;9.80;99.90;;;;;;4250971;27;20047;-85
2022/09/27 07:37:45;;;;;;;2.53;0.63;;;9.90;99.90;;;;;;4230469;28;20051;-85
2022/09/27 07:39:46;;;;;;;7.05;0.85;;;10.00;99.90;;;;;;4233029;28;20396;-85
2022/09/27 07:41:47;;;;;;;4.95;1.10;;;10.00;99.90;;;;;;4233357;27;20135;-85
2022/09/27 07:43:48;;;;;;;2.05;0.90;;;10.10;99.90;;;;;;4237186;27;20035;-85
2022/09/27 07:45:49;;;;;;;3.75;0.65;;;10.10;99.90;;;;;;4250255;27;20042;-85
2022/09/27 07:47:50;;;;;;;1.13;0.60;;;9.70;99.90;;;;;;4250173;27;20035;-85
2022/09/27 07:49:51;;;;;;;6.68;0.70;;;10.40;99.90;;;;;;4231633;28;20155;-84
2022/09/27 07:51:52;;;;;;;4.72;0.70;;;10.50;99.90;;;;;;4250081;27;20039;-85
2022/09/27 07:53:53;;;;;;;5.00;1.13;;;10.60;99.90;;;;;;4249723;27;20092;-85
2022/09/27 07:55:54;;;;;;;1.42;0.28;;;10.80;99.90;;;;;;4249979;27;20043;-84
2022/09/27 07:58:07;;;;;;;3.55;0.20;;;11.00;99.90;;;;;;4250226;27;20039;-84
2022/09/27 08:00:11;;;;;;;3.38;0.35;;;11.10;99.90;;;;;;4249894;27;20051;-85
2022/09/27 08:02:14;;;;;;;1.80;0.32;;;11.00;99.90;;;;;;4231694;28;20043;-84
2022/09/27 08:04:15;;;;;;;0.43;0.10;;;11.10;99.90;;;;;;4249425;27;20074;-84
2022/09/27 08:06:16;;;;;;;0.82;0.10;;;11.00;99.90;;;;;;4231703;28;20035;-84
2022/09/27 08:08:17;;;;;;;1.30;0.20;;;10.90;99.90;;;;;;4249957;27;20066;-84
2022/09/27 08:10:18;;;;;;;0.63;0.30;;;10.80;99.90;;;;;;4197737;28;20044;-84
2022/09/27 08:12:20;;;;;;;1.60;0.20;;;10.70;99.90;;;;;;4248985;27;20118;-84
2022/09/27 08:14:22;;;;;;;1.42;0.10;;;10.60;99.90;;;;;;4230883;28;20126;-84
2022/09/27 08:16:24;;;;;;;1.55;0.30;;;10.00;99.90;;;;;;4249902;27;20094;-85
2022/09/27 08:18:24;;;;;;;0.88;0.20;;;10.50;99.90;;;;;;4249642;27;20050;-84
2022/09/27 08:20:25;;;;;;;2.40;0.30;;;10.50;99.90;;;;;;4249737;27;20039;-84
2022/09/27 08:22:26;;;;;;;1.88;0.20;;;10.60;99.90;;;;;;4249587;27;20043;-84
2022/09/27 08:24:27;;;;;;;3.38;0.32;;;10.50;99.90;;;;;;4249023;27;20096;-85
2022/09/27 08:26:28;;;;;;;3.47;0.45;;;10.50;99.90;;;;;;4249298;27;20047;-84
2022/09/27 08:28:30;;;;;;;2.67;0.40;;;10.50;99.90;;;;;;4249616;27;20122;-84
2022/09/27 08:30:32;;;;;;;2.17;0.40;;;10.60;99.90;;;;;;4231342;28;20119;-84
2022/09/27 08:32:33;;;;;;;2.75;0.38;;;10.60;99.90;;;;;;4249304;27;20043;-84
2022/09/27 08:34:34;;;;;;;1.42;0.30;;;10.70;99.90;;;;;;4249349;27;20103;-84
2022/09/27 08:36:36;;;;;;;1.48;0.60;;;10.80;99.90;;;;;;4248997;27;20043;-84
2022/09/27 08:38:37;;;;;;;1.42;0.40;;;10.90;99.90;;;;;;4249373;27;20503;-84
2022/09/27 08:41:04;;;;;;;1.73;0.35;;;10.90;99.90;;;;;;4249269;27;20053;-84
2022/09/27 08:43:18;;;;;;;1.00;0.40;;;11.00;99.90;;;;;;4248768;27;20047;-84
2022/09/27 08:45:37;;;;;;;2.13;0.20;;;11.00;99.90;;;;;;4248915;27;20039;-84
2022/09/27 08:47:44;;;;;;;1.83;0.50;;;11.10;99.90;;;;;;4248577;27;20054;-84
2022/09/27 08:49:52;;;;;;;0.70;0.30;;;11.20;99.90;;;;;;4248547;27;20078;-84
2022/09/27 08:51:56;;;;;;;2.17;0.20;;;11.30;99.90;;;;;;4248434;27;20482;-84
2022/09/27 08:54:11;;;;;;;0.88;0.28;;;11.40;99.90;;;;;;4248586;27;20047;-84
2022/09/27 08:56:14;;;;;;;1.35;0.30;;;11.40;99.90;;;;;;4248805;27;20501;-84
2022/09/27 08:58:31;;;;;;;0.85;0.20;;;11.50;99.90;;;;;;4230403;28;20036;-84
2022/09/27 09:00:32;;;;;;;1.20;0.50;;;11.60;99.90;;;;;;4249547;27;20111;-84
2022/09/27 09:02:35;;;;;;;2.33;0.30;;;11.50;99.90;;;;;;4231656;28;20051;-84
2022/09/27 09:04:39;;;;;;;1.70;0.30;;;11.40;99.90;;;;;;4230874;28;20039;-84
2022/09/27 09:06:57;;;;;;;1.25;0.30;;;11.40;99.90;;;;;;4249023;27;20058;-84
2022/09/27 09:09:20;;;;;;;1.83;0.20;;;11.20;99.90;;;;;;4248215;27;20035;-84
2022/09/27 09:14:27;;;;;;;3.03;0.95;;;11.00;99.90;;;;;;4248411;27;20126;-84
2022/09/27 09:17:06;;;;;;;0.50;0.30;;;11.00;99.90;;;;;;4230323;28;20047;-84
2022/09/27 09:19:09;;;;;;;4.78;0.55;;;11.00;99.90;;;;;;4248237;27;20453;-84
2022/09/27 09:21:23;;;;;;;1.70;0.20;;;10.90;99.90;;;;;;4213461;28;20202;-83
2022/09/27 09:23:35;;;;;;;1.40;0.50;;;10.90;99.90;;;;;;4230445;28;20476;-84
2022/09/27 09:25:42;;;;;;;2.35;0.80;;;10.90;99.90;;;;;;4248740;27;20066;-83
2022/09/27 09:27:42;;;;;;;1.02;0.30;;;10.90;99.90;;;;;;4248108;27;20051;-84
2022/09/27 09:30:14;;;;;;;1.67;0.63;;;10.80;99.90;;;;;;4230432;28;20051;-84
2022/09/27 09:32:44;;;;;;;2.95;0.38;;;10.80;99.90;;;;;;4248522;27;20444;-84
2022/09/27 09:34:51;;;;;;;2.42;0.40;;;10.80;99.90;;;;;;4210705;27;20056;-84
2022/09/27 09:36:58;;;;;;;1.17;0.40;;;10.70;99.90;;;;;;4248278;27;20130;-84
2022/09/27 09:39:09;;;;;;;1.55;0.47;;;10.70;99.90;;;;;;4248473;27;20043;-84
2022/09/27 09:41:16;;;;;;;0.80;0.30;;;10.70;99.90;;;;;;4230113;28;20052;-84
2022/09/27 09:43:27;;;;;;;1.85;0.40;;;10.80;99.90;;;;;;4248507;27;20047;-83
2022/09/27 09:45:46;;;;;;;0.63;0.10;;;10.70;99.90;;;;;;4248091;27;20099;-84
2022/09/27 09:47:57;;;;;;;0.27;0.17;;;10.70;99.90;;;;;;4248305;27;20512;-84
2022/09/27 09:50:02;;;;;;;1.83;0.60;;;10.70;99.90;;;;;;4247833;27;20055;-84
2022/09/27 09:52:20;;;;;;;3.42;0.40;;;10.70;99.90;;;;;;4248168;27;20043;-84
2022/09/27 09:54:49;;;;;;;2.50;0.30;;;10.70;99.90;;;;;;4248080;27;20108;-84
2022/09/27 09:57:04;;;;;;;0.85;0.30;;;10.70;99.90;;;;;;4247682;27;20130;-84
2022/09/27 09:59:17;;;;;;;7.25;0.47;;;10.60;99.90;;;;;;4248174;27;20121;-84
2022/09/27 10:01:21;;;;;;;1.75;0.43;;;10.70;99.90;;;;;;4229584;28;20036;-84
2022/09/27 10:03:23;;;;;;;3.38;0.30;;;10.70;99.90;;;;;;4247909;27;20043;-85
2022/09/27 10:05:26;;;;;;;0.15;0.15;;;10.70;99.90;;;;;;4248131;27;20054;-84
2022/09/27 10:07:28;;;;;;;1.77;0.32;;;10.60;99.90;;;;;;4247629;27;20059;-84
2022/09/27 10:09:29;;;;;;;1.40;0.30;;;10.60;99.90;;;;;;4247993;27;20410;-85
2022/09/27 10:11:38;;;;;;;1.42;0.28;;;10.60;99.90;;;;;;4229710;28;20047;-85
2022/09/27 10:13:39;;;;;;;;;;;10.60;99.90;;;;;;4248075;27;20429;-84
2022/09/27 10:15:40;;;;;;;2.05;0.10;;;10.60;99.90;;;;;;4247715;27;19919;-85
2022/09/27 10:17:48;;;;;;;1.05;0.40;;;10.70;99.90;;;;;;4212271;28;20431;-85
2022/09/27 10:19:53;;;;;;;3.53;0.20;;;10.70;99.90;;;;;;4247718;27;20122;-84
2022/09/27 10:22:17;;;;;;;0.82;0.30;;;10.80;99.90;;;;;;4247677;27;20122;-85
2022/09/27 10:24:18;;;;;;;1.70;0.35;;;10.90;99.90;;;;;;4247776;27;20071;-84
2022/09/27 10:26:20;;;;;;;3.08;0.20;;;11.00;99.90;;;;;;4247393;27;20077;-84
2022/09/27 10:28:33;;;;;;;1.75;0.40;;;11.00;99.90;;;;;;4247832;27;20074;-84
2022/09/27 10:30:35;;;;;;;2.17;0.32;;;11.10;99.90;;;;;;4247463;27;20074;-84
2022/09/27 10:32:36;;;;;;;1.45;0.30;;;11.20;99.90;;;;;;4247786;27;20096;-84
2022/09/27 10:34:41;;;;;;;2.42;0.20;;;11.20;99.90;;;;;;4247685;27;20042;-84
2022/09/27 10:36:42;;;;;;;0.45;0.05;;;11.30;99.90;;;;;;4247766;27;20039;-84
2022/09/27 10:38:52;;;;;;;3.30;0.43;;;11.30;99.90;;;;;;4247041;27;20059;-84
2022/09/27 10:40:56;;;;;;;1.65;0.20;;;11.40;99.90;;;;;;4247773;27;20471;-84
2022/09/27 10:42:56;;;;;;;0.98;0.30;;;11.50;99.90;;;;;;4247690;28;20602;-84
2022/09/27 10:45:31;;;;;;;0.35;0.08;;;11.50;99.90;;;;;;4247637;28;20039;-83
2022/09/27 10:47:32;;;;;;;1.70;0.20;;;11.70;99.90;;;;;;4247029;28;20051;-84
2022/09/27 10:49:35;;;;;;;1.23;0.28;;;11.90;99.90;;;;;;4229233;28;20051;-84
2022/09/27 10:51:36;;;;;;;1.92;0.20;;;12.10;99.90;;;;;;4247351;28;20205;-84
2022/09/27 10:53:43;;;;;;;0.10;0.10;;;12.20;99.90;;;;;;4229121;28;20659;-84
2022/09/27 10:55:49;;;;;;;1.83;0.10;;;12.20;99.90;;;;;;4229192;28;20058;-84
2022/09/27 10:57:54;;;;;;;2.53;0.40;;;12.40;99.90;;;;;;4228459;28;20093;-84
2022/09/27 11:00:16;;;;;;;1.55;0.22;;;12.60;99.90;;;;;;4247330;28;20043;-84
2022/09/27 11:02:36;;;;;;;1.55;0.22;;;12.70;99.90;;;;;;4227906;28;20059;-84
2022/09/27 11:04:37;;;;;;;4.07;0.65;;;12.70;99.90;;;;;;4247661;28;20039;-84
2022/09/27 11:06:39;;;;;;;0.88;0.20;;;12.60;99.90;;;;;;4247533;28;20039;-84